Time;durP1;ratioP1;P1;durP2;ratioP2;P2;SDS_P1;SDS_P2;PMS_P1;PMS_P2;Temp;Humidity;BMP_temperature;BMP_pressure;BME280_temperature;BME280_humidity;BME280_pressure;Samples;Min_cycle;Max_cycle;Signal;HPM_P1;HPM_P2
2024/01/18 00:02:22;;;;;;;80.80;35.90;;;;;;;-0.25;100.00;97728.53;214246;1314;140276;-94
2024/01/18 00:07:23;;;;;;;68.00;34.60;;;;;;;-0.26;100.00;97723.80;214943;1310;139431;-93
2024/01/18 00:12:23;;;;;;;85.40;39.20;;;;;;;-0.24;100.00;97717.11;214510;1308;139567;-94
2024/01/18 00:17:24;;;;;;;81.20;38.20;;;;;;;-0.26;100.00;97721.64;215237;1308;140918;-93
2024/01/18 00:22:24;;;;;;;75.60;37.30;;;;;;;-0.30;100.00;97731.33;214426;1308;230737;-94
2024/01/18 00:27:25;;;;;;;86.20;39.00;;;;;;;-0.32;100.00;97739.34;215298;1308;106403;-94
2024/01/18 00:32:25;;;;;;;85.80;39.70;;;;;;;-0.29;100.00;97751.02;214360;1307;140751;-94
2024/01/18 00:37:26;;;;;;;81.50;39.00;;;;;;;-0.31;100.00;97754.16;214890;1307;139750;-95
2024/01/18 00:42:26;;;;;;;82.90;39.10;;;;;;;-0.33;100.00;97755.30;214220;1307;140434;-95
2024/01/18 00:47:27;;;;;;;79.20;38.30;;;;;;;-0.36;100.00;97755.19;214983;1307;139468;-94
2024/01/18 00:52:28;;;;;;;76.30;39.80;;;;;;;-0.37;100.00;97756.41;214418;1308;139891;-94
2024/01/18 00:57:29;;;;;;;74.40;37.60;;;;;;;-0.39;100.00;97759.94;215091;1308;96096;-94
2024/01/18 01:02:29;;;;;;;86.70;41.50;;;;;;;-0.40;100.00;97767.88;214376;1308;141215;-94
2024/01/18 01:07:30;;;;;;;81.60;40.20;;;;;;;-0.42;100.00;97773.41;215053;1308;139840;-93
2024/01/18 01:12:30;;;;;;;85.40;41.20;;;;;;;-0.42;100.00;97783.30;214558;1307;140235;-94
2024/01/18 01:17:31;;;;;;;87.20;43.00;;;;;;;-0.40;100.00;97784.56;215100;1308;139877;-94
2024/01/18 01:22:31;;;;;;;82.00;39.50;;;;;;;-0.38;100.00;97785.50;214578;1308;140304;-94
2024/01/18 01:27:31;;;;;;;83.70;39.30;;;;;;;-0.38;100.00;97787.35;215201;1307;96570;-94
2024/01/18 01:32:32;;;;;;;78.50;38.30;;;;;;;-0.40;100.00;97788.33;214359;1308;141116;-94
2024/01/18 01:37:32;;;;;;;72.80;36.00;;;;;;;-0.38;100.00;97794.84;214880;1307;139344;-95
2024/01/18 01:42:32;;;;;;;83.00;39.90;;;;;;;-0.39;100.00;97797.92;214501;1307;141232;-94
2024/01/18 01:47:33;;;;;;;77.10;39.50;;;;;;;-0.41;100.00;97796.81;214854;1307;139444;-95
2024/01/18 01:52:34;;;;;;;80.00;38.20;;;;;;;-0.41;100.00;97791.18;214306;1307;139996;-94
2024/01/18 01:57:36;;;;;;;79.00;38.00;;;;;;;-0.40;100.00;97797.54;215136;1309;107550;-93
2024/01/18 02:02:40;;;;;;;77.50;37.70;;;;;;;-0.38;100.00;97794.17;214490;1308;140007;-94
2024/01/18 02:07:41;;;;;;;79.80;39.20;;;;;;;-0.38;100.00;97794.55;214912;1307;139938;-93
2024/01/18 02:12:42;;;;;;;79.30;39.10;;;;;;;-0.38;100.00;97806.35;214482;1307;139647;-94
2024/01/18 02:17:43;;;;;;;85.10;37.70;;;;;;;-0.40;100.00;97817.44;214951;1307;139405;-93
2024/01/18 02:22:44;;;;;;;79.30;38.50;;;;;;;-0.40;100.00;97829.02;214514;1307;142750;-94
2024/01/18 02:27:44;;;;;;;75.10;36.90;;;;;;;-0.41;100.00;97834.64;214995;1308;96113;-93
2024/01/18 02:32:44;;;;;;;85.80;40.80;;;;;;;-0.42;100.00;97840.65;214422;1307;139846;-94
2024/01/18 02:37:45;;;;;;;93.00;45.90;;;;;;;-0.39;100.00;97841.68;214713;1308;139716;-93
2024/01/18 02:42:45;;;;;;;93.70;47.70;;;;;;;-0.39;100.00;97841.75;214415;1308;139876;-94
2024/01/18 02:47:46;;;;;;;97.80;46.20;;;;;;;-0.38;100.00;97849.41;214844;1308;139403;-94
2024/01/18 02:52:46;;;;;;;102.10;49.20;;;;;;;-0.38;100.00;97850.34;214484;1307;139820;-92
2024/01/18 02:57:46;;;;;;;91.90;45.70;;;;;;;-0.40;100.00;97857.89;215125;1307;96275;-93
2024/01/18 03:02:47;;;;;;;86.80;42.90;;;;;;;-0.41;100.00;97870.83;214254;1307;140913;-93
2024/01/18 03:07:47;;;;;;;77.60;42.30;;;;;;;-0.42;100.00;97885.72;215088;1307;139906;-93
2024/01/18 03:12:47;;;;;;;89.30;42.90;;;;;;;-0.42;100.00;97885.42;214676;1307;139545;-95
2024/01/18 03:17:48;;;;;;;84.90;41.10;;;;;;;-0.43;100.00;97891.27;215134;1308;139283;-94
2024/01/18 03:22:48;;;;;;;80.90;40.50;;;;;;;-0.47;100.00;97883.41;214364;1307;140736;-93
2024/01/18 03:27:49;;;;;;;75.20;37.70;;;;;;;-0.47;100.00;97894.61;215456;1308;96150;-95
2024/01/18 03:32:49;;;;;;;84.40;38.60;;;;;;;-0.49;100.00;97899.81;214661;1307;139579;-92
2024/01/18 03:37:49;;;;;;;82.70;38.30;;;;;;;-0.49;100.00;97903.15;214989;1307;139313;-92
2024/01/18 03:42:50;;;;;;;77.80;37.10;;;;;;;-0.50;100.00;97917.86;214478;1308;140448;-93
2024/01/18 03:47:51;;;;;;;78.40;37.40;;;;;;;-0.52;100.00;97924.64;214952;1308;139474;-93
2024/01/18 03:52:51;;;;;;;75.90;37.40;;;;;;;-0.52;100.00;97931.89;214675;1307;140588;-93
2024/01/18 03:57:52;;;;;;;83.80;38.00;;;;;;;-0.54;100.00;97943.05;215129;1308;96306;-92
2024/01/18 04:02:52;;;;;;;76.90;37.50;;;;;;;-0.57;100.00;97954.97;214236;1307;142659;-92
2024/01/18 04:07:53;;;;;;;80.80;38.50;;;;;;;-0.57;100.00;97962.67;215105;1307;139549;-93
2024/01/18 04:12:53;;;;;;;85.50;40.80;;;;;;;-0.57;100.00;97982.58;214873;1307;140143;-93
2024/01/18 04:17:54;;;;;;;80.60;39.30;;;;;;;-0.59;100.00;97981.33;215009;1308;140202;-91
2024/01/18 04:22:54;;;;;;;81.20;39.40;;;;;;;-0.60;100.00;97978.91;214412;1308;140718;-93
2024/01/18 04:27:55;;;;;;;80.50;37.50;;;;;;;-0.60;100.00;97991.04;215215;1307;96311;-93
2024/01/18 04:32:55;;;;;;;79.60;37.60;;;;;;;-0.64;100.00;98003.77;214680;1307;140851;-93
2024/01/18 04:37:55;;;;;;;72.20;36.30;;;;;;;-0.64;100.00;98018.52;214848;1307;141397;-93
2024/01/18 04:42:56;;;;;;;70.40;35.20;;;;;;;-0.68;100.00;98032.17;214287;1307;140753;-93
2024/01/18 04:47:57;;;;;;;71.10;34.30;;;;;;;-0.68;100.00;98040.96;215231;1307;140593;-92
2024/01/18 04:52:57;;;;;;;70.30;34.90;;;;;;;-0.73;100.00;98044.52;214553;1307;140119;-92
2024/01/18 04:57:58;;;;;;;70.90;33.80;;;;;;;-0.72;100.00;98041.45;215325;1307;95997;-92
2024/01/18 05:02:58;;;;;;;73.10;34.90;;;;;;;-0.74;100.00;98051.83;214261;1308;140428;-92
2024/01/18 05:07:59;;;;;;;78.70;33.60;;;;;;;-0.76;100.00;98047.39;215033;1307;139826;-91
2024/01/18 05:12:59;;;;;;;66.60;32.10;;;;;;;-0.80;100.00;98037.77;214675;1307;140457;-91
2024/01/18 05:18:01;;;;;;;61.40;29.90;;;;;;;-0.81;100.00;98040.67;214989;1307;139863;-92
2024/01/18 05:23:01;;;;;;;63.90;31.50;;;;;;;-0.84;100.00;98040.63;214447;1307;140162;-91
2024/01/18 05:28:02;;;;;;;61.00;31.80;;;;;;;-0.87;100.00;98040.11;215072;1307;96091;-91
2024/01/18 05:33:02;;;;;;;66.50;32.30;;;;;;;-0.90;100.00;98054.46;214554;1307;140147;-91
2024/01/18 05:38:03;;;;;;;61.70;30.40;;;;;;;-0.91;100.00;98065.41;214804;1307;140630;-91
2024/01/18 05:43:04;;;;;;;62.00;29.20;;;;;;;-0.95;100.00;98091.16;214776;1307;139796;-92
2024/01/18 05:48:04;;;;;;;70.00;32.00;;;;;;;-1.01;100.00;98100.55;215170;1307;139720;-92
2024/01/18 05:53:05;;;;;;;61.10;28.10;;;;;;;-1.04;100.00;98114.92;214313;1307;140048;-93
2024/01/18 05:58:05;;;;;;;63.20;31.30;;;;;;;-1.07;100.00;98118.40;214887;1308;96161;-92
2024/01/18 06:03:05;;;;;;;62.70;30.20;;;;;;;-1.11;100.00;98123.40;214352;1308;140131;-92
2024/01/18 06:08:06;;;;;;;67.30;31.80;;;;;;;-1.17;100.00;98130.84;214847;1308;140748;-91
2024/01/18 06:13:06;;;;;;;65.90;31.60;;;;;;;-1.20;100.00;98144.34;214411;1308;140950;-92
2024/01/18 06:18:07;;;;;;;64.70;33.80;;;;;;;-1.24;100.00;98143.59;214804;1307;139626;-93
2024/01/18 06:23:07;;;;;;;62.80;30.20;;;;;;;-1.28;100.00;98154.13;214647;1307;140354;-91
2024/01/18 06:28:07;;;;;;;60.80;31.20;;;;;;;-1.34;100.00;98164.42;214836;1308;98994;-93
2024/01/18 06:33:10;;;;;;;82.20;35.30;;;;;;;-1.36;100.00;98169.94;214676;1307;139610;-93
2024/01/18 06:38:12;;;;;;;65.80;34.60;;;;;;;-1.39;100.00;98184.25;214913;1308;139510;-93
2024/01/18 06:43:14;;;;;;;58.10;29.30;;;;;;;-1.44;100.00;98194.71;214430;1307;140259;-92
2024/01/18 06:48:15;;;;;;;61.40;29.20;;;;;;;-1.46;100.00;98198.52;215195;1307;139988;-93
2024/01/18 06:53:15;;;;;;;60.50;28.80;;;;;;;-1.46;100.00;98196.91;214288;1307;139848;-93
2024/01/18 06:58:16;;;;;;;56.10;27.70;;;;;;;-1.45;100.00;98197.85;214921;1307;141021;-93
2024/01/18 07:03:17;;;;;;;67.30;31.50;;;;;;;-1.46;100.00;98209.00;214409;1307;140840;-92
2024/01/18 07:08:17;;;;;;;59.10;30.00;;;;;;;-1.45;100.00;98215.95;214949;1309;141012;-94
2024/01/18 07:13:18;;;;;;;67.30;30.70;;;;;;;-1.46;100.00;98233.60;214232;1308;139842;-92
2024/01/18 07:18:18;;;;;;;57.80;30.60;;;;;;;-1.46;100.00;98249.15;214690;1307;139507;-94
2024/01/18 07:23:19;;;;;;;63.30;29.50;;;;;;;-1.51;100.00;98232.78;214301;1307;140878;-92
2024/01/18 07:28:19;;;;;;;60.60;29.50;;;;;;;-1.57;100.00;98213.29;214891;1307;140017;-93
2024/01/18 07:33:20;;;;;;;64.30;30.60;;;;;;;-1.58;100.00;98211.43;214403;1308;336547;-93
2024/01/18 07:38:21;;;;;;;71.10;32.40;;;;;;;-1.56;100.00;98226.02;214815;1307;140164;-93
2024/01/18 07:43:22;;;;;;;60.20;29.10;;;;;;;-1.51;100.00;98241.64;214273;1307;140132;-93
2024/01/18 07:48:22;;;;;;;52.70;25.20;;;;;;;-1.49;100.00;98246.70;215178;1307;139738;-92
2024/01/18 07:53:23;;;;;;;70.90;32.70;;;;;;;-1.49;100.00;98260.26;214432;1307;140363;-93
2024/01/18 07:58:23;;;;;;;66.00;32.90;;;;;;;-1.46;100.00;98275.42;215021;1307;139532;-92
2024/01/18 08:03:24;;;;;;;67.10;32.30;;;;;;;-1.43;100.00;98278.83;214771;1307;140233;-93
2024/01/18 08:08:24;;;;;;;62.70;31.90;;;;;;;-1.38;100.00;98291.48;215037;1308;139643;-93
2024/01/18 08:13:24;;;;;;;68.50;33.70;;;;;;;-1.34;100.00;98291.67;214852;1307;140465;-93
2024/01/18 08:18:25;;;;;;;67.80;33.00;;;;;;;-1.28;100.00;98299.89;215132;1307;140313;-93
2024/01/18 08:23:25;;;;;;;74.40;35.30;;;;;;;-1.25;100.00;98293.11;214601;1308;139499;-93
2024/01/18 08:28:26;;;;;;;65.90;31.80;;;;;;;-1.23;100.00;98279.26;215197;1307;139405;-92
2024/01/18 08:33:26;;;;;;;71.30;34.80;;;;;;;-1.21;100.00;98302.52;214798;1307;139930;-93
2024/01/18 08:38:27;;;;;;;70.90;33.70;;;;;;;-1.18;100.00;98312.30;214800;1307;139819;-93
2024/01/18 08:43:31;;;;;;;64.70;29.80;;;;;;;-1.17;100.00;98330.67;214428;1307;139677;-92
2024/01/18 08:48:31;;;;;;;70.70;34.20;;;;;;;-1.16;100.00;98322.84;215217;1307;138471;-93
2024/01/18 08:53:32;;;;;;;72.40;32.90;;;;;;;-1.12;100.00;98317.77;214726;1307;140121;-94
2024/01/18 08:58:32;;;;;;;60.10;29.10;;;;;;;-1.09;100.00;98326.41;214996;1307;140189;-93
2024/01/18 09:03:33;;;;;;;58.40;29.40;;;;;;;-1.03;100.00;98329.91;214389;1307;140091;-94
2024/01/18 09:08:36;;;;;;;60.10;29.00;;;;;;;-0.99;100.00;98336.58;215112;1307;139650;-94
2024/01/18 09:13:37;;;;;;;61.50;30.70;;;;;;;-0.93;100.00;98344.41;214679;1307;139902;-94
2024/01/18 09:18:38;;;;;;;60.50;29.80;;;;;;;-0.89;100.00;98349.52;215056;1307;139881;-93
2024/01/18 09:23:38;;;;;;;58.20;30.40;;;;;;;-0.85;100.00;98358.57;214433;1307;139833;-94
2024/01/18 09:28:39;;;;;;;60.40;30.10;;;;;;;-0.80;100.00;98367.31;214939;1307;140325;-93
2024/01/18 09:33:39;;;;;;;63.50;29.50;;;;;;;-0.70;100.00;98370.77;214861;1308;139742;-95
2024/01/18 09:38:40;;;;;;;60.80;29.90;;;;;;;-0.63;100.00;98383.91;215062;1307;139942;-94
2024/01/18 09:43:41;;;;;;;66.40;32.40;;;;;;;-0.53;100.00;98405.11;214379;1308;140533;-94
2024/01/18 09:48:45;;;;;;;65.60;30.90;;;;;;;-0.43;100.00;98415.30;215061;1307;139840;-93
2024/01/18 09:53:48;;;;;;;71.70;32.10;;;;;;;-0.36;100.00;98425.95;214451;1307;140295;-94
2024/01/18 09:58:50;;;;;;;67.80;32.70;;;;;;;-0.33;100.00;98442.44;215170;1307;139460;-94
2024/01/18 10:03:51;;;;;;;64.80;31.90;;;;;;;-0.30;100.00;98444.84;214461;1308;140304;-94
2024/01/18 10:08:54;;;;;;;69.60;31.70;;;;;;;-0.26;100.00;98436.66;215135;1307;139425;-95
2024/01/18 10:13:57;;;;;;;71.40;33.00;;;;;;;-0.19;100.00;98436.50;214351;1308;140103;-95
2024/01/18 10:19:00;;;;;;;74.20;33.50;;;;;;;-0.15;100.00;98427.56;214926;1307;140637;-95
2024/01/18 10:24:05;;;;;;;60.50;29.40;;;;;;;-0.14;100.00;98436.92;214641;1307;140840;-95
2024/01/18 10:29:09;;;;;;;60.40;30.50;;;;;;;-0.08;100.00;98424.39;214796;1307;235883;-95
2024/01/18 10:34:10;;;;;;;64.90;30.70;;;;;;;-0.01;100.00;98419.42;214544;1307;139211;-95
2024/01/18 10:39:18;;;;;;;61.30;31.00;;;;;;;0.07;100.00;98423.69;215228;1307;96235;-94
2024/01/18 10:44:19;;;;;;;57.10;30.40;;;;;;;0.20;100.00;98422.45;214313;1307;139045;-96
2024/01/18 10:49:19;;;;;;;62.50;28.80;;;;;;;0.28;100.00;98427.20;215110;1307;139207;-95
2024/01/18 10:54:20;;;;;;;59.50;28.40;;;;;;;0.36;100.00;98417.23;214375;1307;140769;-94
2024/01/18 10:59:20;;;;;;;55.80;27.30;;;;;;;0.43;100.00;98429.33;215120;1307;139733;-95
2024/01/18 11:04:21;;;;;;;61.80;30.90;;;;;;;0.48;100.00;98445.80;214618;1307;140126;-94
2024/01/18 11:09:26;;;;;;;60.90;29.70;;;;;;;0.48;100.00;98455.63;215220;1308;96034;-95
2024/01/18 11:14:28;;;;;;;59.80;29.10;;;;;;;0.48;100.00;98459.95;214491;1307;140288;-95
2024/01/18 11:19:42;;;;;;;59.60;27.80;;;;;;;0.52;100.00;98473.80;214976;1308;139805;-94
2024/01/18 11:24:42;;;;;;;62.20;29.10;;;;;;;0.60;100.00;98483.63;214377;1307;140679;-94
2024/01/18 11:29:43;;;;;;;53.00;27.80;;;;;;;0.68;100.00;98478.42;215016;1308;139180;-94
2024/01/18 11:34:45;;;;;;;61.10;29.00;;;;;;;0.77;100.00;98484.46;214722;1307;140688;-95
2024/01/18 11:39:52;;;;;;;57.10;29.60;;;;;;;0.80;100.00;98493.83;215043;1308;96267;-94
